Thomson Spirit — 9HA2336 — position and weather

sailwx.info

Track history (hours):
 
Tides and Currents Weather Stations Pressure Air Temp Water Temp Dewpoint Dewpoint Depression Visibility Wind Speed Wind Dir Waves Ship Positions

Thomson Spirit

Last reported at 2014-Oct-31 08:31 UTC. Time now 2014-Oct-31 08:36 UTC.
Position N 37°28' E 025°19'.

Length 214 m; draft 7.8 m.

Type: Passenger vessel. MMSI: 248368000.

Date/timePositionNaut miles runAvg speedWind from/ knotsBaromVisibWave heightAir tempDewpointWater temp
2014-Oct-31 08:31N 37°28' E 025°19'0 0.0
2014-Oct-31 07:31N 37°28' E 025°19'0 0.0
2014-Oct-31 06:31N 37°28' E 025°19'3 2.9
2014-Oct-31 05:33N 37°28' E 025°16'6 6.2
2014-Oct-31 04:33N 37°24' E 025°09'1110.5
2014-Oct-31 03:33N 37°18' E 025°20'1312.9
2014-Oct-31 02:33N 37°14' E 025°36'1212.4
2014-Oct-31 01:33N 37°11' E 025°51'1212.2
2014-Oct-31 00:33N 37°03' E 026°03'1311.8
2014-Oct-30 23:25N 36°56' E 026°17'1012.1
2014-Oct-30 22:33N 36°50' E 026°28'31913.3
2014-Oct-29 22:27N 34°39' E 032°27'1213.8
2014-Oct-29 21:34N 34°35' E 032°41'1413.9
2014-Oct-29 20:34N 34°32' E 032°57'7 7.5
2014-Oct-29 19:33N 34°39' E 033°01'0 0.4
2014-Oct-29 18:33N 34°39' E 033°01'0 0.0
2014-Oct-29 17:33N 34°39' E 033°01'0 0.0
2014-Oct-29 16:29N 34°39' E 033°01'0 0.0
2014-Oct-29 15:33N 34°39' E 033°01'0 0.0
2014-Oct-29 14:33N 34°39' E 033°01'0 0.0
2014-Oct-29 13:33N 34°39' E 033°01'0 0.0
2014-Oct-29 12:33N 34°39' E 033°01'0 0.0
2014-Oct-29 11:33N 34°39' E 033°01'0 0.0
2014-Oct-29 10:33N 34°39' E 033°01'0 0.0
2014-Oct-29 09:33N 34°39' E 033°01'0 0.0
2014-Oct-29 08:33N 34°39' E 033°01'0 0.0
2014-Oct-29 07:33N 34°39' E 033°01'0 0.0
2014-Oct-29 06:33N 34°39' E 033°01'0 0.0
2014-Oct-29 05:33N 34°39' E 033°01'4 4.5
2014-Oct-29 04:34N 34°35' E 033°04'8 7.7
2014-Oct-29 03:33N 34°32' E 032°55'10 9.5
2014-Oct-29 02:33N 34°34' E 032°44'1211.0
2014-Oct-29 01:27N 34°37' E 032°30'  
2014-Oct-26 01:04N 36°17' E 026°35'916.7
2014-Oct-26 00:33N 36°21' E 026°25'1717.1
2014-Oct-25 23:33N 36°30' E 026°07'1717.1
2014-Oct-25 22:33N 36°38' E 025°48'1717.3
2014-Oct-25 21:33N 36°46' E 025°29'1716.7
2014-Oct-25 20:33N 36°50' E 025°09'1716.7
2014-Oct-25 19:33N 36°52' E 024°48'1615.9
2014-Oct-25 18:33N 36°59' E 024°30'1717.4
2014-Oct-25 17:33N 37°10' E 024°14'4017.3
2014-Oct-25 15:14N 37°41' E 023°41'1117.0
2014-Oct-25 14:33N 37°52' E 023°36'5 4.5
2014-Oct-25 13:32N 37°56' E 023°38'0 0.0
2014-Oct-25 12:32N 37°56' E 023°38'0 0.0
2014-Oct-25 11:32N 37°56' E 023°38'0 0.0
2014-Oct-25 10:32N 37°56' E 023°38'0 0.0
2014-Oct-25 09:29N 37°56' E 023°38'0 0.0
2014-Oct-25 08:32N 37°56' E 023°38'0 0.0
2014-Oct-25 07:29N 37°56' E 023°38'0 0.0
2014-Oct-25 06:32N 37°56' E 023°38'0 0.0
2014-Oct-25 05:32N 37°56' E 023°38'0 0.0
2014-Oct-25 04:32N 37°56' E 023°38'7 6.9
2014-Oct-25 03:33N 37°50' E 023°40'1313.2
2014-Oct-25 02:33N 37°37' E 023°46'3715.1
2014-Oct-25 00:04N 37°02' E 024°01'814.8
2014-Oct-24 23:33N 36°55' E 024°04'1515.1
2014-Oct-24 22:33N 36°41' E 024°11'1515.3
2014-Oct-24 21:33N 36°29' E 024°23'1414.3
2014-Oct-24 20:33N 36°19' E 024°36'1413.9
2014-Oct-24 19:33N 36°09' E 024°48'1414.1
2014-Oct-24 18:33N 35°60' E 025°01'1514.7
2014-Oct-24 17:33N 35°50' E 025°14'1514.6
2014-Oct-24 16:33N 35°39' E 025°27'1414.3
2014-Oct-24 15:33N 35°29' E 025°39'339 8.5
2014-Oct-22 23:33N 34°35' E 032°28'1414.1
2014-Oct-22 22:33N 34°32' E 032°44'1414.2
2014-Oct-22 21:34N 34°32' E 033°01'7 7.1
2014-Oct-22 20:31N 34°39' E 033°01'0 0.0
2014-Oct-22 19:31N 34°39' E 033°01'0 0.0
2014-Oct-22 18:31N 34°39' E 033°01'0 0.0
2014-Oct-22 17:31N 34°39' E 033°01'0 0.0
2014-Oct-22 16:31N 34°39' E 033°01'0 0.0
2014-Oct-22 15:31N 34°39' E 033°01'0 0.0
2014-Oct-22 14:31N 34°39' E 033°01'0 0.0
2014-Oct-22 13:31N 34°39' E 033°01'0 0.0
2014-Oct-22 12:31N 34°39' E 033°01'0 0.0
2014-Oct-22 11:31N 34°39' E 033°01'0 0.0
2014-Oct-22 10:31N 34°39' E 033°01'0 0.0
2014-Oct-22 09:32N 34°39' E 033°01'0 0.0
2014-Oct-22 08:32N 34°39' E 033°01'0 0.0
2014-Oct-22 07:32N 34°39' E 033°01'0 0.0
2014-Oct-22 06:32N 34°39' E 033°01'0 0.0
2014-Oct-22 05:32N 34°39' E 033°01'0 0.0
2014-Oct-22 04:32N 34°39' E 033°01'2 2.5
2014-Oct-22 03:33N 34°38' E 033°03'8 7.5
2014-Oct-22 02:33N 34°32' E 032°58'1010.3
2014-Oct-22 01:33N 34°34' E 032°46'1010.2
2014-Oct-22 00:33N 34°37' E 032°34'  
Track history (hours):
 
Tides and Currents Weather Stations Pressure Air Temp Water Temp Dewpoint Dewpoint Depression Visibility Wind Speed Wind Dir Waves Ship Positions

Thomson Spirit

Last reported at 2014-Oct-31 08:31 UTC. Time now 2014-Oct-31 08:36 UTC.
Position N 37°28' E 025°19'.

Length 214 m; draft 7.8 m.

Type: Passenger vessel. MMSI: 248368000.

Date/timePositionNaut miles runAvg speedWind from/ knotsBaromVisibWave heightAir tempDewpointWater temp
2014-Oct-31 08:31N 37°28' E 025°19'0 0.0
2014-Oct-31 07:31N 37°28' E 025°19'0 0.0
2014-Oct-31 06:31N 37°28' E 025°19'3 2.9
2014-Oct-31 05:33N 37°28' E 025°16'6 6.2
2014-Oct-31 04:33N 37°24' E 025°09'1110.5
2014-Oct-31 03:33N 37°18' E 025°20'1312.9
2014-Oct-31 02:33N 37°14' E 025°36'1212.4
2014-Oct-31 01:33N 37°11' E 025°51'1212.2
2014-Oct-31 00:33N 37°03' E 026°03'1311.8
2014-Oct-30 23:25N 36°56' E 026°17'1012.1
2014-Oct-30 22:33N 36°50' E 026°28'31913.3
2014-Oct-29 22:27N 34°39' E 032°27'1213.8
2014-Oct-29 21:34N 34°35' E 032°41'1413.9
2014-Oct-29 20:34N 34°32' E 032°57'7 7.5
2014-Oct-29 19:33N 34°39' E 033°01'0 0.4
2014-Oct-29 18:33N 34°39' E 033°01'0 0.0
2014-Oct-29 17:33N 34°39' E 033°01'0 0.0
2014-Oct-29 16:29N 34°39' E 033°01'0 0.0
2014-Oct-29 15:33N 34°39' E 033°01'0 0.0
2014-Oct-29 14:33N 34°39' E 033°01'0 0.0
2014-Oct-29 13:33N 34°39' E 033°01'0 0.0
2014-Oct-29 12:33N 34°39' E 033°01'0 0.0
2014-Oct-29 11:33N 34°39' E 033°01'0 0.0
2014-Oct-29 10:33N 34°39' E 033°01'0 0.0
2014-Oct-29 09:33N 34°39' E 033°01'0 0.0
2014-Oct-29 08:33N 34°39' E 033°01'0 0.0
2014-Oct-29 07:33N 34°39' E 033°01'0 0.0
2014-Oct-29 06:33N 34°39' E 033°01'0 0.0
2014-Oct-29 05:33N 34°39' E 033°01'4 4.5
2014-Oct-29 04:34N 34°35' E 033°04'8 7.7
2014-Oct-29 03:33N 34°32' E 032°55'10 9.5
2014-Oct-29 02:33N 34°34' E 032°44'1211.0
2014-Oct-29 01:27N 34°37' E 032°30'  
2014-Oct-26 01:04N 36°17' E 026°35'916.7
2014-Oct-26 00:33N 36°21' E 026°25'1717.1
2014-Oct-25 23:33N 36°30' E 026°07'1717.1
2014-Oct-25 22:33N 36°38' E 025°48'1717.3
2014-Oct-25 21:33N 36°46' E 025°29'1716.7
2014-Oct-25 20:33N 36°50' E 025°09'1716.7
2014-Oct-25 19:33N 36°52' E 024°48'1615.9
2014-Oct-25 18:33N 36°59' E 024°30'1717.4
2014-Oct-25 17:33N 37°10' E 024°14'4017.3
2014-Oct-25 15:14N 37°41' E 023°41'1117.0
2014-Oct-25 14:33N 37°52' E 023°36'5 4.5
2014-Oct-25 13:32N 37°56' E 023°38'0 0.0
2014-Oct-25 12:32N 37°56' E 023°38'0 0.0
2014-Oct-25 11:32N 37°56' E 023°38'0 0.0
2014-Oct-25 10:32N 37°56' E 023°38'0 0.0
2014-Oct-25 09:29N 37°56' E 023°38'0 0.0
2014-Oct-25 08:32N 37°56' E 023°38'0 0.0
2014-Oct-25 07:29N 37°56' E 023°38'0 0.0
2014-Oct-25 06:32N 37°56' E 023°38'0 0.0
2014-Oct-25 05:32N 37°56' E 023°38'0 0.0
2014-Oct-25 04:32N 37°56' E 023°38'7 6.9
2014-Oct-25 03:33N 37°50' E 023°40'1313.2
2014-Oct-25 02:33N 37°37' E 023°46'3715.1
2014-Oct-25 00:04N 37°02' E 024°01'814.8
2014-Oct-24 23:33N 36°55' E 024°04'1515.1
2014-Oct-24 22:33N 36°41' E 024°11'1515.3
2014-Oct-24 21:33N 36°29' E 024°23'1414.3
2014-Oct-24 20:33N 36°19' E 024°36'1413.9
2014-Oct-24 19:33N 36°09' E 024°48'1414.1
2014-Oct-24 18:33N 35°60' E 025°01'1514.7
2014-Oct-24 17:33N 35°50' E 025°14'1514.6
2014-Oct-24 16:33N 35°39' E 025°27'1414.3
2014-Oct-24 15:33N 35°29' E 025°39'339 8.5
2014-Oct-22 23:33N 34°35' E 032°28'1414.1
2014-Oct-22 22:33N 34°32' E 032°44'1414.2
2014-Oct-22 21:34N 34°32' E 033°01'7 7.1
2014-Oct-22 20:31N 34°39' E 033°01'0 0.0
2014-Oct-22 19:31N 34°39' E 033°01'0 0.0
2014-Oct-22 18:31N 34°39' E 033°01'0 0.0
2014-Oct-22 17:31N 34°39' E 033°01'0 0.0
2014-Oct-22 16:31N 34°39' E 033°01'0 0.0
2014-Oct-22 15:31N 34°39' E 033°01'0 0.0
2014-Oct-22 14:31N 34°39' E 033°01'0 0.0
2014-Oct-22 13:31N 34°39' E 033°01'0 0.0
2014-Oct-22 12:31N 34°39' E 033°01'0 0.0
2014-Oct-22 11:31N 34°39' E 033°01'0 0.0
2014-Oct-22 10:31N 34°39' E 033°01'0 0.0
2014-Oct-22 09:32N 34°39' E 033°01'0 0.0
2014-Oct-22 08:32N 34°39' E 033°01'0 0.0
2014-Oct-22 07:32N 34°39' E 033°01'0 0.0
2014-Oct-22 06:32N 34°39' E 033°01'0 0.0
2014-Oct-22 05:32N 34°39' E 033°01'0 0.0
2014-Oct-22 04:32N 34°39' E 033°01'2 2.5
2014-Oct-22 03:33N 34°38' E 033°03'8 7.5
2014-Oct-22 02:33N 34°32' E 032°58'1010.3
2014-Oct-22 01:33N 34°34' E 032°46'1010.2
2014-Oct-22 00:33N 34°37' E 032°34'  

Dump ship's entire track history